sensor_id;sensor_type;location;lat;lon;timestamp;temperature;humidity
4964;DHT22;2497;47.410;9.740;2023-03-13T00:00:28;4.70;99.90
4964;DHT22;2497;47.410;9.740;2023-03-13T00:02:55;4.60;99.90
4964;DHT22;2497;47.410;9.740;2023-03-13T00:05:22;4.50;99.90
4964;DHT22;2497;47.410;9.740;2023-03-13T00:07:50;4.40;99.90
4964;DHT22;2497;47.410;9.740;2023-03-13T00:10:18;4.40;99.90
4964;DHT22;2497;47.410;9.740;2023-03-13T00:12:45;4.40;99.90
4964;DHT22;2497;47.410;9.740;2023-03-13T00:15:12;4.50;99.90
4964;DHT22;2497;47.410;9.740;2023-03-13T00:17:39;4.50;99.90
4964;DHT22;2497;47.410;9.740;2023-03-13T00:20:08;4.60;99.90
4964;DHT22;2497;47.410;9.740;2023-03-13T00:22:35;4.70;99.90
4964;DHT22;2497;47.410;9.740;2023-03-13T00:25:02;4.80;99.90
4964;DHT22;2497;47.410;9.740;2023-03-13T00:27:33;4.80;99.90
4964;DHT22;2497;47.410;9.740;2023-03-13T00:30:00;4.80;99.90
4964;DHT22;2497;47.410;9.740;2023-03-13T00:32:27;4.80;99.90
4964;DHT22;2497;47.410;9.740;2023-03-13T00:34:54;4.90;99.90
4964;DHT22;2497;47.410;9.740;2023-03-13T00:37:21;4.90;99.90
4964;DHT22;2497;47.410;9.740;2023-03-13T00:39:48;4.80;99.90
4964;DHT22;2497;47.410;9.740;2023-03-13T00:42:16;4.70;99.90
4964;DHT22;2497;47.410;9.740;2023-03-13T00:44:44;4.70;99.90
4964;DHT22;2497;47.410;9.740;2023-03-13T00:47:11;4.60;99.90
4964;DHT22;2497;47.410;9.740;2023-03-13T00:49:38;4.70;99.90
4964;DHT22;2497;47.410;9.740;2023-03-13T00:52:06;4.70;99.90
4964;DHT22;2497;47.410;9.740;2023-03-13T00:54:33;4.70;99.90
4964;DHT22;2497;47.410;9.740;2023-03-13T00:57:00;4.80;99.90
4964;DHT22;2497;47.410;9.740;2023-03-13T00:59:27;4.80;99.90
4964;DHT22;2497;47.410;9.740;2023-03-13T01:01:56;4.90;99.90
4964;DHT22;2497;47.410;9.740;2023-03-13T01:04:23;4.90;99.90
4964;DHT22;2497;47.410;9.740;2023-03-13T01:06:50;4.80;99.90
4964;DHT22;2497;47.410;9.740;2023-03-13T01:09:17;4.80;99.90
4964;DHT22;2497;47.410;9.740;2023-03-13T01:11:45;4.80;99.90
4964;DHT22;2497;47.410;9.740;2023-03-13T01:14:13;4.70;99.90
4964;DHT22;2497;47.410;9.740;2023-03-13T01:16:41;4.70;99.90
4964;DHT22;2497;47.410;9.740;2023-03-13T01:19:12;4.90;99.90
4964;DHT22;2497;47.410;9.740;2023-03-13T01:21:40;5.00;99.90
4964;DHT22;2497;47.410;9.740;2023-03-13T01:24:08;5.00;99.90
4964;DHT22;2497;47.410;9.740;2023-03-13T01:26:35;5.00;99.90
4964;DHT22;2497;47.410;9.740;2023-03-13T01:29:02;5.00;99.90
4964;DHT22;2497;47.410;9.740;2023-03-13T01:31:31;5.00;99.90
4964;DHT22;2497;47.410;9.740;2023-03-13T01:34:00;5.10;99.90
4964;DHT22;2497;47.410;9.740;2023-03-13T01:36:29;5.20;99.90
4964;DHT22;2497;47.410;9.740;2023-03-13T01:38:57;5.30;99.90
4964;DHT22;2497;47.410;9.740;2023-03-13T01:41:26;5.40;99.90
4964;DHT22;2497;47.410;9.740;2023-03-13T01:43:53;5.50;99.90
4964;DHT22;2497;47.410;9.740;2023-03-13T01:46:21;5.60;99.90
4964;DHT22;2497;47.410;9.740;2023-03-13T01:48:51;5.60;99.90
4964;DHT22;2497;47.410;9.740;2023-03-13T01:51:22;5.50;99.90
4964;DHT22;2497;47.410;9.740;2023-03-13T01:53:55;5.60;99.90
4964;DHT22;2497;47.410;9.740;2023-03-13T01:56:26;5.60;99.90
4964;DHT22;2497;47.410;9.740;2023-03-13T01:58:56;5.70;99.90
4964;DHT22;2497;47.410;9.740;2023-03-13T02:01:24;5.70;99.90
4964;DHT22;2497;47.410;9.740;2023-03-13T02:03:51;5.70;99.90
4964;DHT22;2497;47.410;9.740;2023-03-13T02:06:19;5.70;99.90
4964;DHT22;2497;47.410;9.740;2023-03-13T02:08:51;5.70;99.90
4964;DHT22;2497;47.410;9.740;2023-03-13T02:11:26;5.70;99.90
4964;DHT22;2497;47.410;9.740;2023-03-13T02:13:56;5.70;99.90
4964;DHT22;2497;47.410;9.740;2023-03-13T02:16:25;5.80;99.90
4964;DHT22;2497;47.410;9.740;2023-03-13T02:18:52;5.80;99.90
4964;DHT22;2497;47.410;9.740;2023-03-13T02:21:28;5.80;99.90
4964;DHT22;2497;47.410;9.740;2023-03-13T02:24:04;5.80;99.90
4964;DHT22;2497;47.410;9.740;2023-03-13T02:26:33;5.70;99.90
4964;DHT22;2497;47.410;9.740;2023-03-13T02:29:01;5.70;99.90
4964;DHT22;2497;47.410;9.740;2023-03-13T02:31:28;5.80;99.90
4964;DHT22;2497;47.410;9.740;2023-03-13T02:33:57;5.80;99.90
4964;DHT22;2497;47.410;9.740;2023-03-13T02:36:27;5.80;99.90
4964;DHT22;2497;47.410;9.740;2023-03-13T02:39:00;5.70;99.90
4964;DHT22;2497;47.410;9.740;2023-03-13T02:41:29;5.70;99.90
4964;DHT22;2497;47.410;9.740;2023-03-13T02:43:58;5.60;99.90
4964;DHT22;2497;47.410;9.740;2023-03-13T02:46:25;5.60;99.90
4964;DHT22;2497;47.410;9.740;2023-03-13T02:48:54;5.60;99.90
4964;DHT22;2497;47.410;9.740;2023-03-13T02:51:26;5.50;99.90
4964;DHT22;2497;47.410;9.740;2023-03-13T02:53:58;5.60;99.90
4964;DHT22;2497;47.410;9.740;2023-03-13T02:56:28;5.60;99.90
4964;DHT22;2497;47.410;9.740;2023-03-13T02:58:58;5.60;99.90
4964;DHT22;2497;47.410;9.740;2023-03-13T03:01:26;5.50;99.90
4964;DHT22;2497;47.410;9.740;2023-03-13T03:03:53;5.50;99.90
4964;DHT22;2497;47.410;9.740;2023-03-13T03:06:20;5.50;99.90
4964;DHT22;2497;47.410;9.740;2023-03-13T03:08:47;5.50;99.90
4964;DHT22;2497;47.410;9.740;2023-03-13T03:11:14;5.50;99.90
4964;DHT22;2497;47.410;9.740;2023-03-13T03:13:41;5.50;99.90
4964;DHT22;2497;47.410;9.740;2023-03-13T03:16:12;5.50;99.90
4964;DHT22;2497;47.410;9.740;2023-03-13T03:18:43;5.50;99.90
4964;DHT22;2497;47.410;9.740;2023-03-13T03:21:10;5.60;99.90
4964;DHT22;2497;47.410;9.740;2023-03-13T03:23:37;5.60;99.90
4964;DHT22;2497;47.410;9.740;2023-03-13T03:26:05;5.50;99.90
4964;DHT22;2497;47.410;9.740;2023-03-13T03:28:33;5.50;99.90
4964;DHT22;2497;47.410;9.740;2023-03-13T03:31:03;5.40;99.90
4964;DHT22;2497;47.410;9.740;2023-03-13T03:33:32;5.40;99.90
4964;DHT22;2497;47.410;9.740;2023-03-13T03:36:00;5.50;99.90
4964;DHT22;2497;47.410;9.740;2023-03-13T03:38:27;5.50;99.90
4964;DHT22;2497;47.410;9.740;2023-03-13T03:40:54;5.60;99.90
4964;DHT22;2497;47.410;9.740;2023-03-13T03:43:22;5.50;99.90
4964;DHT22;2497;47.410;9.740;2023-03-13T03:45:49;5.60;99.90
4964;DHT22;2497;47.410;9.740;2023-03-13T03:48:16;5.50;99.90
4964;DHT22;2497;47.410;9.740;2023-03-13T03:50:45;5.50;99.90
4964;DHT22;2497;47.410;9.740;2023-03-13T03:53:12;5.50;99.90
4964;DHT22;2497;47.410;9.740;2023-03-13T03:55:39;5.60;99.90
4964;DHT22;2497;47.410;9.740;2023-03-13T03:58:06;5.50;99.90
4964;DHT22;2497;47.410;9.740;2023-03-13T04:00:33;5.50;99.90
4964;DHT22;2497;47.410;9.740;2023-03-13T04:03:01;5.50;99.90
4964;DHT22;2497;47.410;9.740;2023-03-13T04:05:28;5.50;99.90
4964;DHT22;2497;47.410;9.740;2023-03-13T04:07:56;5.50;99.90
4964;DHT22;2497;47.410;9.740;2023-03-13T04:10:23;5.50;99.90
4964;DHT22;2497;47.410;9.740;2023-03-13T04:12:50;5.70;99.90
4964;DHT22;2497;47.410;9.740;2023-03-13T04:15:18;5.80;99.90
4964;DHT22;2497;47.410;9.740;2023-03-13T04:17:45;5.70;99.90
4964;DHT22;2497;47.410;9.740;2023-03-13T04:20:12;5.70;99.90
4964;DHT22;2497;47.410;9.740;2023-03-13T04:22:39;5.70;99.90
4964;DHT22;2497;47.410;9.740;2023-03-13T04:25:09;5.70;99.90
4964;DHT22;2497;47.410;9.740;2023-03-13T04:27:36;5.70;99.90
4964;DHT22;2497;47.410;9.740;2023-03-13T04:30:04;5.70;99.90
4964;DHT22;2497;47.410;9.740;2023-03-13T04:32:32;5.70;99.90
4964;DHT22;2497;47.410;9.740;2023-03-13T04:34:59;5.70;99.90
4964;DHT22;2497;47.410;9.740;2023-03-13T04:37:26;5.70;99.90
4964;DHT22;2497;47.410;9.740;2023-03-13T04:39:54;5.70;99.90
4964;DHT22;2497;47.410;9.740;2023-03-13T04:42:23;5.60;99.90
4964;DHT22;2497;47.410;9.740;2023-03-13T04:44:50;5.60;99.90
4964;DHT22;2497;47.410;9.740;2023-03-13T04:47:17;5.60;99.90
4964;DHT22;2497;47.410;9.740;2023-03-13T04:49:44;5.60;99.90
4964;DHT22;2497;47.410;9.740;2023-03-13T04:52:11;5.60;99.90
4964;DHT22;2497;47.410;9.740;2023-03-13T04:54:38;5.70;99.90
4964;DHT22;2497;47.410;9.740;2023-03-13T04:57:06;5.70;99.90
4964;DHT22;2497;47.410;9.740;2023-03-13T04:59:34;5.80;99.90
4964;DHT22;2497;47.410;9.740;2023-03-13T05:02:01;5.80;99.90
4964;DHT22;2497;47.410;9.740;2023-03-13T05:04:28;5.80;99.90
4964;DHT22;2497;47.410;9.740;2023-03-13T05:06:55;5.80;99.90
4964;DHT22;2497;47.410;9.740;2023-03-13T05:09:22;5.80;99.90
4964;DHT22;2497;47.410;9.740;2023-03-13T05:11:50;5.90;99.90
4964;DHT22;2497;47.410;9.740;2023-03-13T05:14:17;5.90;99.90
4964;DHT22;2497;47.410;9.740;2023-03-13T05:16:48;5.80;99.90
4964;DHT22;2497;47.410;9.740;2023-03-13T05:19:15;5.80;99.90
4964;DHT22;2497;47.410;9.740;2023-03-13T05:21:42;5.80;99.90
4964;DHT22;2497;47.410;9.740;2023-03-13T05:24:09;5.80;99.90
4964;DHT22;2497;47.410;9.740;2023-03-13T05:26:36;5.80;99.90
4964;DHT22;2497;47.410;9.740;2023-03-13T05:29:03;5.80;99.90
4964;DHT22;2497;47.410;9.740;2023-03-13T05:31:31;5.80;99.90
4964;DHT22;2497;47.410;9.740;2023-03-13T05:34:02;6.00;99.90
4964;DHT22;2497;47.410;9.740;2023-03-13T05:36:29;5.90;99.90
4964;DHT22;2497;47.410;9.740;2023-03-13T05:38:56;6.10;99.90
4964;DHT22;2497;47.410;9.740;2023-03-13T05:41:23;6.10;99.90
4964;DHT22;2497;47.410;9.740;2023-03-13T05:43:50;6.10;99.90
4964;DHT22;2497;47.410;9.740;2023-03-13T05:46:18;6.00;99.90
4964;DHT22;2497;47.410;9.740;2023-03-13T05:48:45;6.00;99.90
4964;DHT22;2497;47.410;9.740;2023-03-13T05:51:13;6.10;99.90
4964;DHT22;2497;47.410;9.740;2023-03-13T05:53:40;6.10;99.90
4964;DHT22;2497;47.410;9.740;2023-03-13T05:56:07;6.10;99.90
4964;DHT22;2497;47.410;9.740;2023-03-13T05:58:34;6.00;99.90
4964;DHT22;2497;47.410;9.740;2023-03-13T06:01:06;5.90;99.90
4964;DHT22;2497;47.410;9.740;2023-03-13T06:03:34;5.90;99.90
4964;DHT22;2497;47.410;9.740;2023-03-13T06:06:01;5.90;99.90
4964;DHT22;2497;47.410;9.740;2023-03-13T06:08:30;6.00;99.90
4964;DHT22;2497;47.410;9.740;2023-03-13T06:10:58;6.00;99.90
4964;DHT22;2497;47.410;9.740;2023-03-13T06:13:26;6.10;99.90
4964;DHT22;2497;47.410;9.740;2023-03-13T06:15:55;6.00;99.90
4964;DHT22;2497;47.410;9.740;2023-03-13T06:18:23;6.10;99.90
4964;DHT22;2497;47.410;9.740;2023-03-13T06:20:55;6.20;99.90
4964;DHT22;2497;47.410;9.740;2023-03-13T06:23:23;6.30;99.90
4964;DHT22;2497;47.410;9.740;2023-03-13T06:25:52;6.20;99.90
4964;DHT22;2497;47.410;9.740;2023-03-13T06:28:19;6.20;99.90
4964;DHT22;2497;47.410;9.740;2023-03-13T06:30:46;6.10;99.90
4964;DHT22;2497;47.410;9.740;2023-03-13T06:33:13;6.10;99.90
4964;DHT22;2497;47.410;9.740;2023-03-13T06:35:41;6.10;99.90
4964;DHT22;2497;47.410;9.740;2023-03-13T06:38:09;6.20;99.90
4964;DHT22;2497;47.410;9.740;2023-03-13T06:40:36;6.10;99.90
4964;DHT22;2497;47.410;9.740;2023-03-13T06:43:04;6.10;99.90
4964;DHT22;2497;47.410;9.740;2023-03-13T06:45:34;6.10;99.90
4964;DHT22;2497;47.410;9.740;2023-03-13T06:48:01;6.20;99.90
4964;DHT22;2497;47.410;9.740;2023-03-13T06:50:28;6.20;99.90
4964;DHT22;2497;47.410;9.740;2023-03-13T06:52:55;6.20;99.90
4964;DHT22;2497;47.410;9.740;2023-03-13T06:55:23;6.20;99.90
4964;DHT22;2497;47.410;9.740;2023-03-13T06:57:50;6.20;99.90
4964;DHT22;2497;47.410;9.740;2023-03-13T07:00:20;6.20;99.90
4964;DHT22;2497;47.410;9.740;2023-03-13T07:02:47;6.30;99.90
4964;DHT22;2497;47.410;9.740;2023-03-13T07:05:14;6.40;99.90
4964;DHT22;2497;47.410;9.740;2023-03-13T07:07:42;6.40;99.90
4964;DHT22;2497;47.410;9.740;2023-03-13T07:10:10;6.50;99.90
4964;DHT22;2497;47.410;9.740;2023-03-13T07:12:37;6.50;99.90
4964;DHT22;2497;47.410;9.740;2023-03-13T07:15:05;6.60;99.90
4964;DHT22;2497;47.410;9.740;2023-03-13T07:17:34;6.70;99.90
4964;DHT22;2497;47.410;9.740;2023-03-13T07:20:02;6.80;99.90
4964;DHT22;2497;47.410;9.740;2023-03-13T07:22:31;6.80;99.90
4964;DHT22;2497;47.410;9.740;2023-03-13T07:24:58;6.90;99.90
4964;DHT22;2497;47.410;9.740;2023-03-13T07:27:25;6.90;99.90
4964;DHT22;2497;47.410;9.740;2023-03-13T07:29:52;7.00;99.90
4964;DHT22;2497;47.410;9.740;2023-03-13T07:32:19;7.00;99.90
4964;DHT22;2497;47.410;9.740;2023-03-13T07:34:48;7.00;99.90
4964;DHT22;2497;47.410;9.740;2023-03-13T07:37:16;7.10;99.90
4964;DHT22;2497;47.410;9.740;2023-03-13T07:39:43;7.20;99.90
4964;DHT22;2497;47.410;9.740;2023-03-13T07:42:10;7.20;99.90
4964;DHT22;2497;47.410;9.740;2023-03-13T07:44:40;7.30;99.90
4964;DHT22;2497;47.410;9.740;2023-03-13T07:47:07;7.40;99.90
4964;DHT22;2497;47.410;9.740;2023-03-13T07:49:34;7.50;99.90
4964;DHT22;2497;47.410;9.740;2023-03-13T07:52:07;7.40;99.90
4964;DHT22;2497;47.410;9.740;2023-03-13T07:54:34;7.40;99.90
4964;DHT22;2497;47.410;9.740;2023-03-13T07:57:01;7.40;99.90
4964;DHT22;2497;47.410;9.740;2023-03-13T07:59:28;7.40;99.90
4964;DHT22;2497;47.410;9.740;2023-03-13T08:01:56;7.50;99.90
4964;DHT22;2497;47.410;9.740;2023-03-13T08:04:23;7.50;99.90
4964;DHT22;2497;47.410;9.740;2023-03-13T08:06:50;7.60;99.90
4964;DHT22;2497;47.410;9.740;2023-03-13T08:09:20;7.70;99.90
4964;DHT22;2497;47.410;9.740;2023-03-13T08:11:47;7.90;99.90
4964;DHT22;2497;47.410;9.740;2023-03-13T08:14:14;8.00;99.90
4964;DHT22;2497;47.410;9.740;2023-03-13T08:16:41;8.10;99.90
4964;DHT22;2497;47.410;9.740;2023-03-13T08:19:09;8.20;99.90
4964;DHT22;2497;47.410;9.740;2023-03-13T08:21:36;8.40;99.90
4964;DHT22;2497;47.410;9.740;2023-03-13T08:24:05;8.60;99.90
4964;DHT22;2497;47.410;9.740;2023-03-13T08:26:35;8.60;99.90
4964;DHT22;2497;47.410;9.740;2023-03-13T08:29:05;8.70;99.90
4964;DHT22;2497;47.410;9.740;2023-03-13T08:31:34;8.80;99.90
4964;DHT22;2497;47.410;9.740;2023-03-13T08:34:01;9.00;99.90
4964;DHT22;2497;47.410;9.740;2023-03-13T08:36:31;9.10;99.90
4964;DHT22;2497;47.410;9.740;2023-03-13T08:39:00;9.20;99.90
4964;DHT22;2497;47.410;9.740;2023-03-13T08:41:28;9.30;99.90
4964;DHT22;2497;47.410;9.740;2023-03-13T08:43:58;9.30;99.90
4964;DHT22;2497;47.410;9.740;2023-03-13T08:46:27;9.20;99.90
4964;DHT22;2497;47.410;9.740;2023-03-13T08:48:55;9.20;99.90
4964;DHT22;2497;47.410;9.740;2023-03-13T08:51:23;9.40;99.90
4964;DHT22;2497;47.410;9.740;2023-03-13T08:53:51;9.70;99.90
4964;DHT22;2497;47.410;9.740;2023-03-13T08:56:21;10.00;99.90
4964;DHT22;2497;47.410;9.740;2023-03-13T08:58:49;10.30;99.90
4964;DHT22;2497;47.410;9.740;2023-03-13T09:01:19;10.50;99.90
4964;DHT22;2497;47.410;9.740;2023-03-13T09:03:46;10.60;99.90
4964;DHT22;2497;47.410;9.740;2023-03-13T09:06:13;10.70;99.90
4964;DHT22;2497;47.410;9.740;2023-03-13T09:08:41;10.80;99.90
4964;DHT22;2497;47.410;9.740;2023-03-13T09:11:09;11.30;99.90
4964;DHT22;2497;47.410;9.740;2023-03-13T09:13:39;11.50;99.90
4964;DHT22;2497;47.410;9.740;2023-03-13T09:16:08;11.90;99.90
4964;DHT22;2497;47.410;9.740;2023-03-13T09:18:37;12.30;99.90
4964;DHT22;2497;47.410;9.740;2023-03-13T09:21:06;12.30;99.90
4964;DHT22;2497;47.410;9.740;2023-03-13T09:23:34;12.20;99.90
4964;DHT22;2497;47.410;9.740;2023-03-13T09:26:01;12.50;99.90
4964;DHT22;2497;47.410;9.740;2023-03-13T09:28:28;12.70;99.90
4964;DHT22;2497;47.410;9.740;2023-03-13T09:31:05;12.90;99.90
4964;DHT22;2497;47.410;9.740;2023-03-13T09:33:32;13.00;99.90
4964;DHT22;2497;47.410;9.740;2023-03-13T09:36:01;12.80;99.90
4964;DHT22;2497;47.410;9.740;2023-03-13T09:38:28;12.80;99.90
4964;DHT22;2497;47.410;9.740;2023-03-13T09:41:02;13.20;99.90
4964;DHT22;2497;47.410;9.740;2023-03-13T09:43:38;13.70;99.90
4964;DHT22;2497;47.410;9.740;2023-03-13T09:46:12;14.00;99.90
4964;DHT22;2497;47.410;9.740;2023-03-13T09:48:43;13.80;99.90
4964;DHT22;2497;47.410;9.740;2023-03-13T09:51:17;13.70;99.90
4964;DHT22;2497;47.410;9.740;2023-03-13T09:53:49;14.20;99.90
4964;DHT22;2497;47.410;9.740;2023-03-13T09:56:21;15.00;99.90
4964;DHT22;2497;47.410;9.740;2023-03-13T09:58:53;15.50;99.90
4964;DHT22;2497;47.410;9.740;2023-03-13T10:01:25;15.20;99.90
4964;DHT22;2497;47.410;9.740;2023-03-13T10:04:03;16.10;99.90
4964;DHT22;2497;47.410;9.740;2023-03-13T10:06:36;16.70;99.90
4964;DHT22;2497;47.410;9.740;2023-03-13T10:09:15;16.60;99.90
4964;DHT22;2497;47.410;9.740;2023-03-13T10:11:50;16.40;99.90
4964;DHT22;2497;47.410;9.740;2023-03-13T10:14:21;16.80;99.90
4964;DHT22;2497;47.410;9.740;2023-03-13T10:16:57;16.90;99.90
4964;DHT22;2497;47.410;9.740;2023-03-13T10:19:30;16.90;99.90
4964;DHT22;2497;47.410;9.740;2023-03-13T10:22:01;17.30;99.90
4964;DHT22;2497;47.410;9.740;2023-03-13T10:24:32;17.50;99.90
4964;DHT22;2497;47.410;9.740;2023-03-13T10:26:59;17.60;99.90
4964;DHT22;2497;47.410;9.740;2023-03-13T10:29:27;16.80;99.90
4964;DHT22;2497;47.410;9.740;2023-03-13T10:31:56;16.80;99.90
4964;DHT22;2497;47.410;9.740;2023-03-13T10:34:25;17.30;99.90
4964;DHT22;2497;47.410;9.740;2023-03-13T10:36:57;17.00;99.90
4964;DHT22;2497;47.410;9.740;2023-03-13T10:39:27;17.20;99.90
4964;DHT22;2497;47.410;9.740;2023-03-13T10:42:07;17.60;99.90
4964;DHT22;2497;47.410;9.740;2023-03-13T10:44:35;17.80;99.90
4964;DHT22;2497;47.410;9.740;2023-03-13T10:47:03;18.40;99.90
4964;DHT22;2497;47.410;9.740;2023-03-13T10:49:31;18.80;99.90
4964;DHT22;2497;47.410;9.740;2023-03-13T10:52:01;18.70;99.90
4964;DHT22;2497;47.410;9.740;2023-03-13T10:54:31;18.60;99.90
4964;DHT22;2497;47.410;9.740;2023-03-13T10:57:27;18.40;99.90
4964;DHT22;2497;47.410;9.740;2023-03-13T10:59:56;18.50;99.90
4964;DHT22;2497;47.410;9.740;2023-03-13T11:02:28;19.00;99.90
4964;DHT22;2497;47.410;9.740;2023-03-13T11:04:58;19.90;99.90
4964;DHT22;2497;47.410;9.740;2023-03-13T11:07:28;20.40;99.90
4964;DHT22;2497;47.410;9.740;2023-03-13T11:10:05;21.20;99.90
4964;DHT22;2497;47.410;9.740;2023-03-13T11:12:44;21.60;99.90
4964;DHT22;2497;47.410;9.740;2023-03-13T11:15:14;21.00;99.90
4964;DHT22;2497;47.410;9.740;2023-03-13T11:17:41;20.90;99.90
4964;DHT22;2497;47.410;9.740;2023-03-13T11:20:16;21.10;99.90
4964;DHT22;2497;47.410;9.740;2023-03-13T11:22:52;21.80;99.90
4964;DHT22;2497;47.410;9.740;2023-03-13T11:25:29;21.80;99.90
4964;DHT22;2497;47.410;9.740;2023-03-13T11:28:15;21.50;99.90
4964;DHT22;2497;47.410;9.740;2023-03-13T11:30:53;21.90;99.90
4964;DHT22;2497;47.410;9.740;2023-03-13T11:33:28;22.00;99.90
4964;DHT22;2497;47.410;9.740;2023-03-13T11:36:03;21.70;99.90
4964;DHT22;2497;47.410;9.740;2023-03-13T11:38:35;21.10;99.90
4964;DHT22;2497;47.410;9.740;2023-03-13T11:41:25;20.80;99.90
4964;DHT22;2497;47.410;9.740;2023-03-13T11:44:29;20.90;99.90
4964;DHT22;2497;47.410;9.740;2023-03-13T11:47:24;21.10;99.90
4964;DHT22;2497;47.410;9.740;2023-03-13T11:52:56;22.00;99.90
4964;DHT22;2497;47.410;9.740;2023-03-13T11:55:44;22.90;99.90
4964;DHT22;2497;47.410;9.740;2023-03-13T11:58:33;24.20;99.90
4964;DHT22;2497;47.410;9.740;2023-03-13T12:01:07;25.30;99.90
4964;DHT22;2497;47.410;9.740;2023-03-13T12:03:38;25.80;99.90
4964;DHT22;2497;47.410;9.740;2023-03-13T12:06:14;26.50;99.90
4964;DHT22;2497;47.410;9.740;2023-03-13T12:08:45;26.20;99.90
4964;DHT22;2497;47.410;9.740;2023-03-13T12:11:17;26.60;99.90
4964;DHT22;2497;47.410;9.740;2023-03-13T12:13:52;27.30;99.90
4964;DHT22;2497;47.410;9.740;2023-03-13T12:16:25;26.90;99.90
4964;DHT22;2497;47.410;9.740;2023-03-13T12:18:59;26.30;99.90
4964;DHT22;2497;47.410;9.740;2023-03-13T12:21:29;26.60;99.90
4964;DHT22;2497;47.410;9.740;2023-03-13T12:24:03;28.20;99.90
4964;DHT22;2497;47.410;9.740;2023-03-13T12:26:36;29.00;99.90
4964;DHT22;2497;47.410;9.740;2023-03-13T12:29:13;28.60;99.90
4964;DHT22;2497;47.410;9.740;2023-03-13T12:31:46;30.00;99.90
4964;DHT22;2497;47.410;9.740;2023-03-13T12:34:19;29.60;99.90
4964;DHT22;2497;47.410;9.740;2023-03-13T12:36:51;29.60;99.90
4964;DHT22;2497;47.410;9.740;2023-03-13T12:39:29;29.60;99.90
4964;DHT22;2497;47.410;9.740;2023-03-13T12:42:14;30.40;99.90
4964;DHT22;2497;47.410;9.740;2023-03-13T12:44:44;31.30;99.90
4964;DHT22;2497;47.410;9.740;2023-03-13T12:47:16;31.70;99.90
4964;DHT22;2497;47.410;9.740;2023-03-13T12:50:12;31.60;99.90
4964;DHT22;2497;47.410;9.740;2023-03-13T12:53:07;31.50;99.90
4964;DHT22;2497;47.410;9.740;2023-03-13T12:56:04;31.40;99.90
4964;DHT22;2497;47.410;9.740;2023-03-13T12:58:45;31.80;99.90
4964;DHT22;2497;47.410;9.740;2023-03-13T13:01:25;31.90;99.90
4964;DHT22;2497;47.410;9.740;2023-03-13T13:03:56;31.60;99.90
4964;DHT22;2497;47.410;9.740;2023-03-13T13:06:24;32.00;99.90
4964;DHT22;2497;47.410;9.740;2023-03-13T13:09:07;31.60;99.90
4964;DHT22;2497;47.410;9.740;2023-03-13T13:11:44;31.30;99.90
4964;DHT22;2497;47.410;9.740;2023-03-13T13:20:44;32.80;99.90
4964;DHT22;2497;47.410;9.740;2023-03-13T13:23:35;31.00;99.90
4964;DHT22;2497;47.410;9.740;2023-03-13T13:32:37;31.30;99.90
4964;DHT22;2497;47.410;9.740;2023-03-13T13:35:30;31.50;99.90
4964;DHT22;2497;47.410;9.740;2023-03-13T13:38:21;33.20;99.90
4964;DHT22;2497;47.410;9.740;2023-03-13T13:41:02;34.40;99.90
4964;DHT22;2497;47.410;9.740;2023-03-13T13:43:31;34.00;99.90
4964;DHT22;2497;47.410;9.740;2023-03-13T13:46:02;34.60;99.90
4964;DHT22;2497;47.410;9.740;2023-03-13T13:48:33;34.30;99.90
4964;DHT22;2497;47.410;9.740;2023-03-13T13:51:22;33.70;99.90
4964;DHT22;2497;47.410;9.740;2023-03-13T13:53:52;33.30;99.90
4964;DHT22;2497;47.410;9.740;2023-03-13T13:56:33;32.10;99.90
4964;DHT22;2497;47.410;9.740;2023-03-13T13:59:21;30.60;99.90
4964;DHT22;2497;47.410;9.740;2023-03-13T14:02:04;30.20;99.90
4964;DHT22;2497;47.410;9.740;2023-03-13T14:04:42;30.10;99.90
4964;DHT22;2497;47.410;9.740;2023-03-13T14:07:15;29.50;99.90
4964;DHT22;2497;47.410;9.740;2023-03-13T14:09:48;29.80;99.90
4964;DHT22;2497;47.410;9.740;2023-03-13T14:12:28;29.50;99.90
4964;DHT22;2497;47.410;9.740;2023-03-13T14:15:12;29.10;99.90
4964;DHT22;2497;47.410;9.740;2023-03-13T14:17:41;29.00;99.90
4964;DHT22;2497;47.410;9.740;2023-03-13T14:20:23;29.40;99.90
4964;DHT22;2497;47.410;9.740;2023-03-13T14:22:51;28.20;99.90
4964;DHT22;2497;47.410;9.740;2023-03-13T14:25:19;27.10;99.90
4964;DHT22;2497;47.410;9.740;2023-03-13T14:27:47;26.50;99.90
4964;DHT22;2497;47.410;9.740;2023-03-13T14:30:17;25.90;99.90
4964;DHT22;2497;47.410;9.740;2023-03-13T14:32:45;26.00;99.90
4964;DHT22;2497;47.410;9.740;2023-03-13T14:35:14;25.90;99.90
4964;DHT22;2497;47.410;9.740;2023-03-13T14:37:44;26.60;99.90
4964;DHT22;2497;47.410;9.740;2023-03-13T14:40:24;27.20;99.90
4964;DHT22;2497;47.410;9.740;2023-03-13T14:42:53;28.00;99.90
4964;DHT22;2497;47.410;9.740;2023-03-13T14:45:25;28.20;99.90
4964;DHT22;2497;47.410;9.740;2023-03-13T14:47:53;29.00;99.90
4964;DHT22;2497;47.410;9.740;2023-03-13T14:50:24;28.70;99.90
4964;DHT22;2497;47.410;9.740;2023-03-13T14:52:59;28.40;99.90
4964;DHT22;2497;47.410;9.740;2023-03-13T14:55:34;28.00;99.90
4964;DHT22;2497;47.410;9.740;2023-03-13T14:58:22;27.50;99.90
4964;DHT22;2497;47.410;9.740;2023-03-13T15:00:52;27.60;99.90
4964;DHT22;2497;47.410;9.740;2023-03-13T15:03:22;27.50;99.90
4964;DHT22;2497;47.410;9.740;2023-03-13T15:06:05;28.30;99.90
4964;DHT22;2497;47.410;9.740;2023-03-13T15:08:35;27.50;99.90
4964;DHT22;2497;47.410;9.740;2023-03-13T15:11:21;25.80;99.90
4964;DHT22;2497;47.410;9.740;2023-03-13T15:13:54;24.80;99.90
4964;DHT22;2497;47.410;9.740;2023-03-13T15:16:22;25.20;99.90
4964;DHT22;2497;47.410;9.740;2023-03-13T15:18:51;25.90;99.90
4964;DHT22;2497;47.410;9.740;2023-03-13T15:21:24;26.10;99.90
4964;DHT22;2497;47.410;9.740;2023-03-13T15:23:55;26.00;99.90
4964;DHT22;2497;47.410;9.740;2023-03-13T15:26:24;26.50;99.90
4964;DHT22;2497;47.410;9.740;2023-03-13T15:28:51;25.80;99.90
4964;DHT22;2497;47.410;9.740;2023-03-13T15:31:21;26.10;99.90
4964;DHT22;2497;47.410;9.740;2023-03-13T15:33:54;26.90;99.90
4964;DHT22;2497;47.410;9.740;2023-03-13T15:36:22;28.00;99.90
4964;DHT22;2497;47.410;9.740;2023-03-13T15:38:49;28.50;99.90
4964;DHT22;2497;47.410;9.740;2023-03-13T15:41:19;28.30;99.90
4964;DHT22;2497;47.410;9.740;2023-03-13T15:43:47;27.00;99.90
4964;DHT22;2497;47.410;9.740;2023-03-13T15:46:18;26.00;99.90
4964;DHT22;2497;47.410;9.740;2023-03-13T15:48:45;25.50;99.90
4964;DHT22;2497;47.410;9.740;2023-03-13T15:51:14;25.50;99.90
4964;DHT22;2497;47.410;9.740;2023-03-13T15:53:42;25.70;99.90
4964;DHT22;2497;47.410;9.740;2023-03-13T15:56:14;26.90;99.90
4964;DHT22;2497;47.410;9.740;2023-03-13T15:58:43;27.60;99.90
4964;DHT22;2497;47.410;9.740;2023-03-13T16:01:12;28.60;99.90
4964;DHT22;2497;47.410;9.740;2023-03-13T16:03:40;29.30;99.90
4964;DHT22;2497;47.410;9.740;2023-03-13T16:06:17;29.70;99.90
4964;DHT22;2497;47.410;9.740;2023-03-13T16:08:45;29.70;99.90
4964;DHT22;2497;47.410;9.740;2023-03-13T16:11:14;28.30;99.90
4964;DHT22;2497;47.410;9.740;2023-03-13T16:13:43;26.80;99.90
4964;DHT22;2497;47.410;9.740;2023-03-13T16:16:21;25.20;99.90
4964;DHT22;2497;47.410;9.740;2023-03-13T16:18:49;24.90;99.90
4964;DHT22;2497;47.410;9.740;2023-03-13T16:21:18;24.40;99.90
4964;DHT22;2497;47.410;9.740;2023-03-13T16:23:46;24.30;99.90
4964;DHT22;2497;47.410;9.740;2023-03-13T16:26:16;24.10;99.90
4964;DHT22;2497;47.410;9.740;2023-03-13T16:28:45;23.40;99.90
4964;DHT22;2497;47.410;9.740;2023-03-13T16:31:16;22.60;99.90
4964;DHT22;2497;47.410;9.740;2023-03-13T16:33:45;21.50;99.90
4964;DHT22;2497;47.410;9.740;2023-03-13T16:36:17;21.90;99.90
4964;DHT22;2497;47.410;9.740;2023-03-13T16:38:45;22.00;99.90
4964;DHT22;2497;47.410;9.740;2023-03-13T16:41:13;21.30;99.90
4964;DHT22;2497;47.410;9.740;2023-03-13T16:43:41;20.50;99.90
4964;DHT22;2497;47.410;9.740;2023-03-13T16:46:14;19.80;99.90